Terminal Aerodrome Forecast
Issued by NWS

Home | Current Version | Previous Version | Text Only | Print | Product List | Glossary On
Versions: 1 2 3 4 5 6 7 8 9 10 11 12 13 14 15
000
FTUS45 KFGZ 041954 AAA
TAFGCN
TAF AMD
KGCN 041954Z 0420/0518 21012G20KT P6SM SCT050 BKN110
      TEMPO 0421/0424 VRB15G25KT -TSRA BKN040CB
     FM050200 21006KT P6SM SCT040 SCT100=

USA.gov is the U.S. government's official web portal to all federal, state and local government web resources and services.